Time;durP1;ratioP1;P1;durP2;ratioP2;P2;SDS_P1;SDS_P2;PMS_P1;PMS_P2;Temp;Humidity;BMP_temperature;BMP_pressure;BME280_temperature;BME280_humidity;BME280_pressure;Samples;Min_cycle;Max_cycle;Signal;HPM_P1;HPM_P2
2023/11/13 08:56:31;;;;;;;6.10;4.10;;;;;;;6.52;82.29;96291.34;108765;1274;22533;-75
2023/11/13 08:59:02;;;;;;;7.90;4.40;;;;;;;6.60;82.50;96289.29;108762;1274;22521;-75
2023/11/13 09:01:35;;;;;;;7.90;4.50;;;;;;;6.80;82.80;96287.17;108712;1269;25482;-75
2023/11/13 09:04:09;;;;;;;5.40;3.60;;;;;;;6.97;82.62;96279.70;108759;1269;22515;-75
2023/11/13 09:06:50;;;;;;;6.80;4.50;;;;;;;7.02;82.14;96276.02;108671;1267;22514;-75
2023/11/13 09:09:34;;;;;;;6.00;3.90;;;;;;;7.15;82.25;96266.67;108714;1274;22543;-75
2023/11/13 09:12:07;;;;;;;5.90;3.70;;;;;;;7.29;82.21;96263.03;108730;1274;22538;-75
2023/11/13 09:14:41;;;;;;;4.90;3.30;;;;;;;7.40;81.78;96262.08;108761;1274;25952;-75
2023/11/13 09:17:17;;;;;;;4.50;2.90;;;;;;;7.20;81.05;96258.83;108730;1269;22572;-75
2023/11/13 09:19:49;;;;;;;4.90;3.10;;;;;;;7.16;81.48;96255.55;108782;1270;22536;-75
2023/11/13 09:22:23;;;;;;;3.50;2.70;;;;;;;7.06;80.82;96254.08;108742;1269;25450;-75
2023/11/13 09:24:58;;;;;;;3.60;2.00;;;;;;;6.95;80.41;96255.05;108777;1274;22523;-76
2023/11/13 09:27:29;;;;;;;4.80;2.90;;;;;;;7.00;79.87;96250.29;108749;1274;22583;-76
2023/11/13 09:30:04;;;;;;;4.40;2.60;;;;;;;7.02;79.66;96246.96;108765;1274;22528;-76
2023/11/13 09:32:36;;;;;;;4.30;2.10;;;;;;;6.94;79.03;96243.71;108721;1274;23896;-75
2023/11/13 09:35:17;;;;;;;3.50;2.40;;;;;;;6.91;78.69;96249.55;108783;1268;22521;-75
2023/11/13 09:37:51;;;;;;;2.70;1.70;;;;;;;6.83;78.36;96246.81;108799;1272;25223;-76
2023/11/13 09:40:29;;;;;;;3.60;1.90;;;;;;;6.83;77.19;96247.77;108791;1274;23844;-75
2023/11/13 09:43:12;;;;;;;3.70;2.10;;;;;;;6.86;77.09;96243.70;108670;1270;22524;-75
2023/11/13 09:45:51;;;;;;;4.60;2.10;;;;;;;6.95;77.39;96240.34;108812;1266;22583;-75
2023/11/13 09:48:30;;;;;;;2.50;1.80;;;;;;;6.93;76.86;96237.12;108758;1274;23758;-76
2023/11/13 09:51:08;;;;;;;3.90;2.30;;;;;;;6.88;75.95;96228.89;108783;1269;28689;-76
2023/11/13 09:53:43;;;;;;;3.60;1.90;;;;;;;6.91;75.94;96232.17;108768;1269;22521;-76
2023/11/13 09:56:21;;;;;;;3.20;1.60;;;;;;;6.86;74.18;96224.26;108746;1269;22526;-76
2023/11/13 09:58:53;;;;;;;2.50;1.90;;;;;;;6.67;73.47;96233.15;108730;1274;22520;-75
2023/11/13 10:01:29;;;;;;;2.50;1.80;;;;;;;6.62;73.89;96234.84;108713;1274;25420;-75
2023/11/13 10:04:04;;;;;;;3.50;2.10;;;;;;;6.68;74.47;96228.09;108754;1269;24244;-75
2023/11/13 10:06:41;;;;;;;2.20;1.90;;;;;;;6.71;73.97;96232.58;108778;1274;22703;-75
2023/11/13 10:09:19;;;;;;;3.50;2.70;;;;;;;6.84;74.75;96229.73;108796;1270;22511;-76
2023/11/13 10:11:52;;;;;;;3.30;2.10;;;;;;;6.91;74.69;96220.05;108701;1274;22570;-75
2023/11/13 10:14:26;;;;;;;4.60;2.90;;;;;;;6.93;74.60;96218.79;108754;1270;22565;-75
2023/11/13 10:17:01;;;;;;;2.80;2.10;;;;;;;7.06;74.88;96215.14;108748;1270;22592;-76
2023/11/13 10:19:34;;;;;;;2.80;2.00;;;;;;;7.10;74.72;96215.92;108770;1274;22537;-75
2023/11/13 10:22:17;;;;;;;3.10;2.20;;;;;;;6.99;74.49;96214.50;108733;1274;22525;-75
2023/11/13 10:24:57;;;;;;;4.60;2.30;;;;;;;6.95;74.47;96216.36;108803;1266;22592;-75
2023/11/13 10:27:32;;;;;;;2.50;1.90;;;;;;;6.98;74.45;96210.98;108789;1269;22520;-75
2023/11/13 10:30:12;;;;;;;2.70;2.10;;;;;;;6.96;74.15;96210.67;108776;1274;22877;-75
2023/11/13 10:32:48;;;;;;;3.20;2.00;;;;;;;6.96;74.35;96209.71;108717;1274;22521;-75
2023/11/13 10:35:35;;;;;;;2.10;1.20;;;;;;;6.92;73.96;96206.41;108761;1270;22626;-75
2023/11/13 10:38:13;;;;;;;2.10;1.50;;;;;;;7.04;73.55;96204.02;108759;1270;23009;-75
2023/11/13 10:40:54;;;;;;;2.60;1.90;;;;;;;7.29;73.56;96207.24;108735;1274;26522;-76
2023/11/13 10:43:33;;;;;;;3.10;1.80;;;;;;;7.32;72.45;96204.97;108752;1271;22847;-75
2023/11/13 10:46:05;;;;;;;2.30;1.90;;;;;;;7.39;72.56;96199.48;108727;1274;22518;-75
2023/11/13 10:48:41;;;;;;;2.30;1.40;;;;;;;7.70;73.53;96196.42;108712;1270;22611;-75
2023/11/13 10:51:14;;;;;;;3.10;2.20;;;;;;;8.01;73.30;96194.02;108717;1274;22523;-75
2023/11/13 10:53:51;;;;;;;3.50;2.60;;;;;;;8.21;72.92;96190.87;108750;1269;23486;-75
2023/11/13 10:56:27;;;;;;;3.60;2.30;;;;;;;8.32;71.90;96194.78;108740;1274;22591;-75
2023/11/13 10:58:59;;;;;;;2.80;1.90;;;;;;;8.27;70.04;96192.69;108777;1272;22517;-75
2023/11/13 11:01:31;;;;;;;3.60;2.20;;;;;;;8.11;69.39;96192.27;108734;1275;25505;-75
2023/11/13 11:04:10;;;;;;;5.00;2.10;;;;;;;7.85;68.18;96194.31;108748;1271;23756;-75
2023/11/13 11:06:43;;;;;;;3.90;2.10;;;;;;;7.72;69.01;96194.56;108775;1252;22527;-75
2023/11/13 11:09:20;;;;;;;3.20;1.90;;;;;;;7.84;68.57;96184.70;108748;1274;23787;-75
2023/11/13 11:11:53;;;;;;;4.90;2.60;;;;;;;7.97;68.02;96182.17;108796;1271;22571;-75
2023/11/13 11:14:33;;;;;;;3.50;2.10;;;;;;;8.12;68.25;96187.43;108783;1272;22568;-75
2023/11/13 11:17:10;;;;;;;2.20;1.70;;;;;;;8.16;68.49;96190.61;108706;1274;27130;-75
2023/11/13 11:19:47;;;;;;;4.10;2.50;;;;;;;8.11;68.24;96187.43;108793;1274;22640;-75
2023/11/13 11:22:44;;;;;;;3.20;2.40;;;;;;;8.19;69.21;96189.06;108718;1267;22563;-75
2023/11/13 11:25:34;;;;;;;4.20;2.20;;;;;;;8.31;68.98;96186.70;108749;1274;22558;-75
2023/11/13 11:28:06;;;;;;;3.70;2.00;;;;;;;8.02;68.27;96183.31;108776;1268;22565;-75
2023/11/13 11:30:39;;;;;;;3.30;2.00;;;;;;;7.80;68.25;96180.86;108645;1275;25304;-75
2023/11/13 11:33:11;;;;;;;3.00;2.10;;;;;;;7.66;68.56;96174.86;108719;1274;22521;-75
2023/11/13 11:35:50;;;;;;;3.50;2.20;;;;;;;7.53;68.29;96169.75;108733;1274;22521;-75
2023/11/13 11:38:26;;;;;;;8.40;1.70;;;;;;;7.46;68.87;96166.82;108742;1274;22498;-75
2023/11/13 11:41:03;;;;;;;3.90;2.10;;;;;;;7.50;69.04;96164.52;108762;1267;24936;-75
2023/11/13 11:43:40;;;;;;;2.30;1.80;;;;;;;7.52;69.40;96159.83;108749;1274;22528;-74
2023/11/13 11:46:14;;;;;;;3.60;2.10;;;;;;;7.55;69.64;96160.13;108661;1274;151577;-74
2023/11/13 11:48:52;;;;;;;3.00;2.30;;;;;;;7.57;69.73;96160.02;108762;1274;22521;-74
2023/11/13 11:51:26;;;;;;;3.30;1.80;;;;;;;7.62;69.85;96160.53;108722;1274;22552;-74
2023/11/13 11:54:03;;;;;;;2.40;1.80;;;;;;;7.75;70.27;96160.31;108752;1270;22539;-74
2023/11/13 11:56:36;;;;;;;2.10;1.60;;;;;;;8.12;70.61;96153.58;108718;1269;22544;-75
2023/11/13 11:59:09;;;;;;;4.40;1.90;;;;;;;8.48;70.20;96151.20;108792;1274;25291;-74
2023/11/13 12:01:40;;;;;;;2.80;1.70;;;;;;;8.57;69.59;96149.23;108801;1272;22527;-75
2023/11/13 12:04:15;;;;;;;3.60;1.70;;;;;;;8.46;69.16;96149.89;108760;1269;24173;-74
2023/11/13 12:06:52;;;;;;;2.60;1.90;;;;;;;8.30;68.78;96148.24;108799;1274;22511;-75
2023/11/13 12:09:26;;;;;;;2.30;1.50;;;;;;;8.18;68.56;96144.41;108746;1272;25307;-75
2023/11/13 12:12:00;;;;;;;2.20;1.50;;;;;;;8.05;68.43;96147.25;108706;1266;22546;-74
2023/11/13 12:14:34;;;;;;;3.90;1.60;;;;;;;8.00;68.63;96146.77;108767;1272;22520;-74
2023/11/13 12:17:12;;;;;;;2.90;1.90;;;;;;;7.90;68.21;96142.52;108734;1274;22524;-74
2023/11/13 12:19:44;;;;;;;2.90;1.70;;;;;;;7.81;68.43;96146.94;108766;1272;23038;-75
2023/11/13 12:22:15;;;;;;;2.00;1.50;;;;;;;7.73;68.50;96147.29;108695;1274;24058;-74
2023/11/13 12:24:51;;;;;;;2.00;1.30;;;;;;;7.69;68.77;96153.69;108754;1272;22543;-75
2023/11/13 12:27:26;;;;;;;3.50;1.60;;;;;;;7.61;68.46;96151.20;108754;1274;22543;-75
2023/11/13 12:30:15;;;;;;;2.10;1.60;;;;;;;7.57;68.57;96150.89;108795;1274;22524;-74
2023/11/13 12:32:48;;;;;;;3.70;1.80;;;;;;;7.56;69.04;96146.04;108690;1271;22522;-74
2023/11/13 12:35:23;;;;;;;2.90;1.90;;;;;;;7.58;69.35;96144.55;108748;1266;22597;-74
2023/11/13 12:37:55;;;;;;;3.20;2.20;;;;;;;7.60;69.32;96144.34;108767;1275;25246;-74
2023/11/13 12:40:28;;;;;;;5.90;3.00;;;;;;;7.62;69.93;96142.44;108757;1266;22546;-74
2023/11/13 12:42:59;;;;;;;6.50;3.40;;;;;;;7.57;70.21;96146.20;108771;1274;22524;-74
2023/11/13 12:45:32;;;;;;;3.90;3.10;;;;;;;7.47;70.55;96139.16;108751;1272;23125;-74
2023/11/13 12:48:09;;;;;;;5.60;3.30;;;;;;;7.42;71.17;96140.48;108713;1272;23848;-74
2023/11/13 12:50:43;;;;;;;5.40;3.70;;;;;;;7.38;71.76;96142.04;108752;1274;22521;-74
2023/11/13 12:53:16;;;;;;;6.50;3.20;;;;;;;7.30;71.98;96136.80;108716;1274;22560;-74
2023/11/13 12:55:51;;;;;;;5.00;3.20;;;;;;;7.25;72.50;96137.86;108727;1274;25498;-74
2023/11/13 12:58:25;;;;;;;5.50;3.20;;;;;;;7.17;72.33;96143.26;108744;1271;22521;-74
2023/11/13 13:00:56;;;;;;;5.00;3.30;;;;;;;7.08;72.66;96148.08;108730;1272;25345;-74
2023/11/13 13:03:30;;;;;;;6.90;4.00;;;;;;;7.00;72.84;96149.30;108697;1274;24206;-74
2023/11/13 13:06:03;;;;;;;6.70;5.00;;;;;;;6.88;73.19;96147.16;108762;1274;25498;-74
2023/11/13 13:08:35;;;;;;;7.10;4.70;;;;;;;6.75;73.50;96153.86;108772;1266;24148;-74
2023/11/13 13:11:08;;;;;;;6.80;4.70;;;;;;;6.65;74.03;96153.40;108701;1274;23471;-74
2023/11/13 13:13:42;;;;;;;7.80;4.70;;;;;;;6.57;74.45;96149.44;108787;1274;22534;-75
2023/11/13 13:16:18;;;;;;;8.60;5.20;;;;;;;6.52;74.65;96151.08;108759;1272;24161;-74
2023/11/13 13:18:54;;;;;;;7.70;5.00;;;;;;;6.45;75.01;96153.27;108736;1274;25738;-74
2023/11/13 13:21:33;;;;;;;8.70;5.60;;;;;;;6.45;75.27;96158.06;108712;1265;22528;-74
2023/11/13 13:24:08;;;;;;;7.40;4.80;;;;;;;6.45;75.71;96156.75;108734;1274;22788;-74
2023/11/13 13:26:40;;;;;;;9.10;5.60;;;;;;;6.45;75.78;96141.85;108781;1274;22517;-74
2023/11/13 13:29:15;;;;;;;9.00;4.90;;;;;;;6.46;76.05;96141.79;108740;1272;22717;-74
2023/11/13 13:31:51;;;;;;;9.30;4.90;;;;;;;6.46;76.10;96145.75;108714;1266;22524;-74
2023/11/13 13:34:28;;;;;;;8.50;5.10;;;;;;;6.47;76.39;96138.63;108731;1274;22492;-74
2023/11/13 13:37:00;;;;;;;8.20;5.50;;;;;;;6.46;76.71;96131.73;108738;1274;22612;-74
2023/11/13 13:39:36;;;;;;;8.60;5.30;;;;;;;6.44;77.00;96133.11;108699;1275;26616;-74
2023/11/13 13:42:08;;;;;;;11.50;6.50;;;;;;;6.44;77.00;96132.80;108705;1269;22541;-74
2023/11/13 13:44:43;;;;;;;9.30;6.00;;;;;;;6.39;77.06;96123.27;108764;1267;23915;-74
2023/11/13 13:47:15;;;;;;;11.40;6.30;;;;;;;6.41;77.44;96125.70;108729;1275;23793;-74
2023/11/13 13:49:50;;;;;;;11.60;7.50;;;;;;;6.34;77.25;96120.27;108733;1272;22935;-74
2023/11/13 13:52:29;;;;;;;9.40;6.40;;;;;;;6.31;77.70;96117.09;108699;1274;30862;-74
2023/11/13 13:55:09;;;;;;;11.40;6.60;;;;;;;6.29;77.57;96116.31;108761;1272;22532;-74
2023/11/13 13:57:45;;;;;;;10.50;6.30;;;;;;;6.24;77.72;96110.83;108783;1275;23449;-74
2023/11/13 14:00:24;;;;;;;8.60;6.10;;;;;;;6.28;78.12;96112.09;108742;1267;22643;-74
2023/11/13 14:03:00;;;;;;;8.70;5.50;;;;;;;6.35;78.47;96112.58;108719;1275;22775;-74
2023/11/13 14:05:37;;;;;;;7.80;5.60;;;;;;;6.32;78.22;96108.27;108809;1274;24079;-74
2023/11/13 14:08:14;;;;;;;11.90;6.70;;;;;;;6.25;78.33;96112.15;108748;1274;24241;-74
2023/11/13 14:10:49;;;;;;;12.20;5.70;;;;;;;6.18;78.47;96116.98;108723;1274;26545;-74
2023/11/13 14:13:24;;;;;;;8.40;5.40;;;;;;;6.10;78.53;96117.67;108709;1269;25176;-74
2023/11/13 14:15:56;;;;;;;10.70;6.10;;;;;;;6.03;78.68;96116.54;108739;1269;23971;-74
2023/11/13 14:18:31;;;;;;;7.50;6.00;;;;;;;5.97;78.79;96115.91;108732;1267;23029;-74
2023/11/13 14:21:04;;;;;;;18.90;8.90;;;;;;;5.91;78.99;96116.31;108727;1274;25407;-74
2023/11/13 14:23:42;;;;;;;19.20;9.50;;;;;;;5.83;79.09;96119.38;108730;1269;22580;-74
2023/11/13 14:26:17;;;;;;;13.90;7.70;;;;;;;5.75;79.34;96118.02;108725;1275;23022;-74
2023/11/13 14:28:50;;;;;;;13.20;7.50;;;;;;;5.73;79.76;96115.29;108723;1272;25477;-74
2023/11/13 14:31:24;;;;;;;39.30;19.20;;;;;;;5.67;79.95;96115.80;108751;1274;25415;-74
2023/11/13 14:34:00;;;;;;;20.60;13.60;;;;;;;5.58;80.25;96114.24;108773;1273;22536;-74
2023/11/13 14:36:34;;;;;;;19.80;11.10;;;;;;;5.52;80.33;96120.81;108786;1272;22984;-74
2023/11/13 14:39:07;;;;;;;16.10;9.30;;;;;;;5.47;80.77;96121.14;108750;1271;22516;-74
2023/11/13 14:41:38;;;;;;;15.90;9.70;;;;;;;5.45;80.92;96116.98;108684;1275;22654;-74
2023/11/13 14:44:12;;;;;;;18.60;8.40;;;;;;;5.43;80.99;96114.83;108774;1272;22635;-73
2023/11/13 14:46:46;;;;;;;15.50;9.70;;;;;;;5.36;81.04;96114.81;108753;1274;22520;-74
2023/11/13 14:49:20;;;;;;;18.00;10.70;;;;;;;5.32;81.18;96116.30;108749;1275;24202;-74
2023/11/13 14:51:52;;;;;;;17.30;10.30;;;;;;;5.30;81.42;96109.52;108743;1267;24563;-74
2023/11/13 14:54:25;;;;;;;16.90;8.50;;;;;;;5.29;81.74;96108.20;108678;1274;25271;-74
2023/11/13 14:57:05;;;;;;;12.80;8.00;;;;;;;5.26;81.69;96103.73;108708;1274;25040;-73
2023/11/13 14:59:39;;;;;;;17.60;10.20;;;;;;;5.24;81.79;96109.77;108744;1274;22840;-74
2023/11/13 15:02:14;;;;;;;12.20;8.90;;;;;;;5.20;81.96;96111.16;108720;1274;22644;-74
2023/11/13 15:04:48;;;;;;;16.30;9.30;;;;;;;5.17;82.26;96110.55;108773;1274;22520;-74
2023/11/13 15:07:21;;;;;;;13.20;8.50;;;;;;;5.13;82.36;96110.02;108733;1274;22527;-74
2023/11/13 15:09:55;;;;;;;16.20;8.60;;;;;;;5.08;82.37;96117.61;108767;1274;22548;-74
2023/11/13 15:12:28;;;;;;;14.10;9.30;;;;;;;4.99;82.43;96120.88;108736;1274;23176;-74
2023/11/13 15:15:04;;;;;;;13.90;9.50;;;;;;;4.84;82.44;96116.85;108767;1270;22865;-74
2023/11/13 15:17:37;;;;;;;13.70;8.70;;;;;;;4.75;82.87;96118.88;108725;1270;22643;-75
2023/11/13 15:20:11;;;;;;;19.50;11.20;;;;;;;4.67;83.11;96119.52;108740;1275;25356;-75
2023/11/13 15:22:49;;;;;;;21.10;12.20;;;;;;;4.62;83.60;96114.07;108692;1275;23898;-75
2023/11/13 15:25:24;;;;;;;18.20;9.40;;;;;;;4.62;83.84;96114.48;108805;1272;22586;-75
2023/11/13 15:27:59;;;;;;;15.40;8.80;;;;;;;4.60;83.87;96112.95;108780;1272;22591;-75
2023/11/13 15:30:33;;;;;;;15.40;8.10;;;;;;;4.59;84.14;96112.22;108761;1272;22618;-75
2023/11/13 15:33:08;;;;;;;14.50;8.60;;;;;;;4.58;84.51;96109.06;108731;1257;22521;-75
2023/11/13 15:35:42;;;;;;;14.10;8.40;;;;;;;4.59;84.72;96104.77;108749;1269;22517;-75
2023/11/13 15:38:15;;;;;;;13.00;8.20;;;;;;;4.60;84.98;96098.09;108763;1274;22595;-74
2023/11/13 15:40:50;;;;;;;12.10;7.60;;;;;;;4.61;84.98;96090.91;108727;1267;26955;-75
2023/11/13 15:43:25;;;;;;;10.90;6.90;;;;;;;4.60;85.10;96092.69;108814;1274;22540;-75
2023/11/13 15:45:59;;;;;;;11.50;7.00;;;;;;;4.54;85.03;96088.61;108748;1274;22528;-74
2023/11/13 15:48:33;;;;;;;14.40;8.40;;;;;;;4.46;84.86;96089.17;108795;1274;25505;-75
2023/11/13 15:51:06;;;;;;;11.70;6.50;;;;;;;4.38;84.81;96084.66;108747;1274;22524;-75
2023/11/13 15:53:45;;;;;;;12.00;7.10;;;;;;;4.30;84.73;96086.65;108774;1272;22911;-75
2023/11/13 15:56:19;;;;;;;34.30;22.20;;;;;;;4.14;84.48;96078.70;108760;1274;25414;-75
2023/11/13 15:58:53;;;;;;;23.30;14.40;;;;;;;3.95;84.53;96076.40;108724;1274;22526;-75
2023/11/13 16:01:26;;;;;;;20.60;13.70;;;;;;;3.73;84.91;96073.84;108781;1269;22541;-75
2023/11/13 16:04:02;;;;;;;19.10;13.40;;;;;;;3.57;85.13;96071.63;108786;1271;22589;-75
2023/11/13 16:06:39;;;;;;;72.10;59.00;;;;;;;3.49;85.62;96073.94;108740;1274;25268;-75
2023/11/13 16:09:14;;;;;;;65.80;58.60;;;;;;;3.41;85.79;96075.70;108777;1272;25216;-75
2023/11/13 16:11:51;;;;;;;44.70;39.90;;;;;;;3.36;86.08;96072.96;108738;1274;22520;-74
2023/11/13 16:14:31;;;;;;;27.70;23.50;;;;;;;3.35;86.29;96069.86;108737;1274;26608;-74
2023/11/13 16:17:09;;;;;;;18.60;11.60;;;;;;;3.21;85.76;96068.45;108753;1272;22528;-74
2023/11/13 16:19:41;;;;;;;20.40;15.40;;;;;;;3.09;86.18;96061.96;108778;1274;22564;-75
2023/11/13 16:22:14;;;;;;;18.50;12.20;;;;;;;3.05;86.34;96054.95;108761;1274;24002;-74
2023/11/13 16:24:47;;;;;;;21.40;10.60;;;;;;;2.95;86.19;96049.81;108799;1266;24214;-74
2023/11/13 16:27:22;;;;;;;16.60;9.40;;;;;;;2.85;86.58;96046.77;108777;1274;22652;-74
2023/11/13 16:29:58;;;;;;;15.20;10.10;;;;;;;2.72;86.57;96043.92;108781;1272;22521;-75
2023/11/13 16:32:33;;;;;;;21.80;13.10;;;;;;;2.59;86.52;96038.23;108732;1274;22516;-74
2023/11/13 16:35:08;;;;;;;29.10;17.40;;;;;;;2.46;86.85;96040.11;108763;1272;22549;-75
2023/11/13 16:37:42;;;;;;;34.30;22.80;;;;;;;2.39;87.25;96035.20;108709;1275;22560;-74
2023/11/13 16:40:18;;;;;;;43.30;26.00;;;;;;;2.38;87.61;96034.86;108764;1274;25297;-74
2023/11/13 16:42:51;;;;;;;44.20;23.40;;;;;;;2.33;87.60;96028.42;108758;1274;22531;-74
2023/11/13 16:45:25;;;;;;;45.30;27.20;;;;;;;2.20;87.34;96018.61;108814;1266;22577;-74
2023/11/13 16:47:57;;;;;;;42.10;24.80;;;;;;;2.15;87.78;96017.50;108730;1275;25936;-74
2023/11/13 16:50:31;;;;;;;35.70;23.40;;;;;;;2.14;87.82;96021.67;108739;1275;23210;-74
2023/11/13 16:53:12;;;;;;;31.70;21.20;;;;;;;2.10;87.65;96017.13;108822;1257;22521;-74
2023/11/13 16:55:46;;;;;;;39.40;24.00;;;;;;;1.93;87.13;96022.90;108801;1274;22525;-75
2023/11/13 16:58:17;;;;;;;21.20;12.90;;;;;;;1.79;87.72;96016.66;108727;1275;23879;-74
2023/11/13 17:00:52;;;;;;;17.50;13.60;;;;;;;1.81;88.42;96015.30;108744;1260;22529;-74
2023/11/13 17:03:24;;;;;;;36.70;24.20;;;;;;;1.90;89.18;96015.06;108777;1272;23293;-74
2023/11/13 17:06:02;;;;;;;34.40;24.80;;;;;;;1.88;89.02;96018.39;108762;1275;22520;-74
2023/11/13 17:08:39;;;;;;;34.10;23.20;;;;;;;1.89;89.20;96015.89;108758;1275;22507;-74
2023/11/13 17:11:11;;;;;;;32.30;20.90;;;;;;;1.89;89.11;96018.09;108700;1274;22559;-74
2023/11/13 17:13:46;;;;;;;18.40;11.10;;;;;;;1.89;89.22;96016.26;108749;1275;23898;-74
2023/11/13 17:16:19;;;;;;;17.80;10.60;;;;;;;1.82;88.89;96023.41;108815;1274;25268;-74
2023/11/13 17:18:51;;;;;;;18.20;11.90;;;;;;;1.70;89.09;96026.41;108732;1275;22524;-74
2023/11/13 17:21:26;;;;;;;25.50;14.50;;;;;;;1.71;89.29;96021.09;108747;1267;26018;-74
2023/11/13 17:23:58;;;;;;;46.10;29.80;;;;;;;1.69;89.40;96018.02;108790;1275;25297;-74
2023/11/13 17:26:32;;;;;;;62.40;40.60;;;;;;;1.62;89.02;96018.36;108673;1274;22546;-74
2023/11/13 17:29:05;;;;;;;52.40;34.60;;;;;;;1.56;89.44;96023.66;108761;1275;22527;-74
2023/11/13 17:31:36;;;;;;;41.10;27.60;;;;;;;1.52;89.71;96015.69;108733;1267;22514;-74
2023/11/13 17:34:11;;;;;;;27.60;22.00;;;;;;;1.46;89.61;96014.30;108709;1275;23723;-74
2023/11/13 17:36:44;;;;;;;24.70;20.90;;;;;;;1.43;89.90;96010.80;108754;1274;24192;-74
2023/11/13 17:39:18;;;;;;;26.50;15.00;;;;;;;1.42;89.94;96006.60;108760;1274;22533;-74
2023/11/13 17:41:55;;;;;;;14.70;8.80;;;;;;;1.43;90.19;96007.14;108746;1268;22531;-74
2023/11/13 17:44:29;;;;;;;29.40;21.20;;;;;;;1.45;90.54;96005.25;108790;1275;22581;-74
2023/11/13 17:47:04;;;;;;;26.10;18.90;;;;;;;1.48;90.74;96009.05;108750;1275;24234;-74
2023/11/13 17:49:38;;;;;;;16.60;12.80;;;;;;;1.50;90.79;96006.41;108758;1274;23702;-75
2023/11/13 17:52:10;;;;;;;17.10;12.80;;;;;;;1.49;90.52;96009.12;108744;1274;26513;-75
2023/11/13 17:54:48;;;;;;;14.20;10.10;;;;;;;1.47;90.64;96004.18;108813;1274;23157;-75
2023/11/13 17:57:19;;;;;;;12.70;8.70;;;;;;;1.47;90.53;96002.30;108763;1274;25962;-75
2023/11/13 17:59:52;;;;;;;13.10;7.40;;;;;;;1.38;90.58;96000.77;108829;1271;23765;-75
2023/11/13 18:02:27;;;;;;;22.90;14.70;;;;;;;1.37;90.78;95989.21;108722;1273;22510;-75
2023/11/13 18:04:59;;;;;;;22.30;15.70;;;;;;;1.34;91.10;95983.31;108767;1274;25288;-75
2023/11/13 18:07:36;;;;;;;25.30;17.20;;;;;;;1.34;91.31;95971.72;108757;1274;22983;-75
2023/11/13 18:10:15;;;;;;;22.10;15.00;;;;;;;1.37;91.50;95963.20;108786;1275;22550;-75
2023/11/13 18:12:47;;;;;;;15.90;11.20;;;;;;;1.39;91.72;95954.67;108725;1274;26591;-75
2023/11/13 18:15:23;;;;;;;12.90;8.70;;;;;;;1.51;92.12;95944.54;108739;1268;22551;-75
2023/11/13 18:17:55;;;;;;;13.70;6.80;;;;;;;1.81;92.92;95945.20;108766;1275;25368;-75
2023/11/13 18:20:26;;;;;;;15.40;8.30;;;;;;;2.12;93.33;95941.94;108738;1273;22523;-74
2023/11/13 18:23:05;;;;;;;12.10;8.20;;;;;;;2.50;93.44;95936.45;108819;1274;24825;-75
2023/11/13 18:25:38;;;;;;;12.00;7.70;;;;;;;2.84;93.00;95941.09;108778;1262;22521;-75
2023/11/13 18:28:10;;;;;;;13.10;8.00;;;;;;;3.03;92.85;95935.90;108749;1274;22512;-75
2023/11/13 18:30:44;;;;;;;11.00;6.90;;;;;;;3.21;92.75;95929.80;108730;1273;22659;-75
2023/11/13 18:33:15;;;;;;;13.80;6.80;;;;;;;3.38;92.63;95928.59;108767;1267;23752;-75
2023/11/13 18:35:48;;;;;;;14.40;10.20;;;;;;;3.51;92.66;95937.19;108777;1274;25365;-75
2023/11/13 18:38:25;;;;;;;12.50;9.10;;;;;;;3.62;92.21;95938.84;108792;1274;22531;-75
2023/11/13 18:41:00;;;;;;;12.50;8.90;;;;;;;3.67;92.07;95933.33;108741;1274;24208;-75
2023/11/13 18:43:31;;;;;;;12.50;8.50;;;;;;;3.71;91.76;95936.82;108765;1274;22539;-75
2023/11/13 18:46:06;;;;;;;12.00;8.70;;;;;;;3.72;91.63;95928.23;108752;1275;24000;-75
2023/11/13 18:48:37;;;;;;;14.10;8.70;;;;;;;3.78;91.65;95918.66;108716;1274;22535;-75
2023/11/13 18:51:14;;;;;;;12.60;7.60;;;;;;;3.82;91.29;95909.74;108750;1274;25243;-75
2023/11/13 18:53:49;;;;;;;10.90;7.40;;;;;;;3.85;91.22;95901.90;108751;1275;22524;-74
2023/11/13 18:56:23;;;;;;;11.80;8.40;;;;;;;3.91;91.14;95896.84;108758;1275;22567;-75
2023/11/13 18:58:55;;;;;;;10.10;6.00;;;;;;;3.97;91.15;95887.29;108802;1275;22530;-75
2023/11/13 19:01:29;;;;;;;11.40;6.70;;;;;;;4.06;91.04;95878.98;108768;1270;22520;-75
2023/11/13 19:04:07;;;;;;;14.20;9.00;;;;;;;4.15;90.77;95874.73;108830;1274;22518;-75
2023/11/13 19:06:49;;;;;;;14.20;8.50;;;;;;;4.20;90.36;95865.67;108738;1270;25441;-75
2023/11/13 19:09:20;;;;;;;12.10;8.10;;;;;;;4.18;90.27;95857.27;108851;1275;22624;-75
2023/11/13 19:11:53;;;;;;;12.50;6.90;;;;;;;4.15;90.12;95856.73;108757;1274;22540;-75
2023/11/13 19:14:28;;;;;;;13.20;9.20;;;;;;;4.19;90.18;95854.39;108779;1271;22638;-75
2023/11/13 19:17:03;;;;;;;12.50;8.50;;;;;;;4.24;89.96;95849.13;108780;1274;22567;-75
2023/11/13 19:19:35;;;;;;;14.50;8.40;;;;;;;4.26;89.93;95848.15;108758;1275;22542;-75
2023/11/13 19:22:11;;;;;;;11.70;8.30;;;;;;;4.29;89.83;95847.77;108720;1275;22616;-75
2023/11/13 19:24:48;;;;;;;15.00;8.80;;;;;;;4.31;89.66;95850.09;108784;1267;22660;-75
2023/11/13 19:27:23;;;;;;;14.60;8.30;;;;;;;4.35;89.56;95851.89;108844;1274;22534;-75
2023/11/13 19:29:56;;;;;;;13.10;7.40;;;;;;;4.39;89.56;95857.85;108758;1252;22554;-75
2023/11/13 19:32:34;;;;;;;15.30;8.90;;;;;;;4.42;89.38;95851.02;108704;1275;22662;-75
2023/11/13 19:35:10;;;;;;;11.10;7.10;;;;;;;4.48;89.54;95850.20;108786;1274;22604;-75
2023/11/13 19:37:43;;;;;;;16.30;10.10;;;;;;;4.53;89.45;95839.10;108800;1274;22522;-75
2023/11/13 19:40:16;;;;;;;15.40;10.20;;;;;;;4.53;89.41;95840.73;108745;1271;22521;-75
2023/11/13 19:42:53;;;;;;;16.70;10.20;;;;;;;4.53;89.33;95845.35;108750;1274;23240;-75
2023/11/13 19:45:28;;;;;;;14.20;10.40;;;;;;;4.53;89.34;95847.24;108771;1270;22525;-75
2023/11/13 19:48:02;;;;;;;16.00;10.30;;;;;;;4.54;89.29;95844.61;108765;1273;22657;-75
2023/11/13 19:50:37;;;;;;;15.30;9.30;;;;;;;4.56;89.41;95829.34;108736;1274;22550;-75
2023/11/13 19:53:09;;;;;;;15.40;10.10;;;;;;;4.58;89.37;95818.16;108766;1275;22527;-75
2023/11/13 19:55:44;;;;;;;12.10;8.50;;;;;;;4.60;89.57;95815.38;108825;1274;22525;-75
2023/11/13 19:58:19;;;;;;;13.10;8.80;;;;;;;4.69;89.64;95807.21;108752;1274;23981;-75
2023/11/13 20:00:56;;;;;;;12.40;7.50;;;;;;;4.75;89.53;95794.19;108748;1267;22532;-75
2023/11/13 20:03:28;;;;;;;13.00;7.30;;;;;;;4.78;89.52;95787.38;108752;1274;22524;-75
2023/11/13 20:06:02;;;;;;;12.50;8.60;;;;;;;4.82;89.61;95789.96;108711;1275;25314;-74
2023/11/13 20:08:37;;;;;;;12.70;8.70;;;;;;;4.87;89.77;95781.98;108780;1267;22531;-75
2023/11/13 20:11:09;;;;;;;13.30;9.00;;;;;;;4.93;89.65;95768.54;108741;1267;22803;-75
2023/11/13 20:13:46;;;;;;;12.30;8.00;;;;;;;4.96;89.39;95761.98;108780;1274;25411;-75
2023/11/13 20:16:20;;;;;;;11.10;5.40;;;;;;;4.94;89.40;95762.19;108766;1272;22524;-75
2023/11/13 20:18:51;;;;;;;10.80;5.50;;;;;;;4.97;89.49;95754.25;108772;1267;25341;-75
2023/11/13 20:21:30;;;;;;;11.20;7.70;;;;;;;5.00;89.61;95752.56;108751;1274;26548;-75
2023/11/13 20:24:02;;;;;;;13.90;8.00;;;;;;;5.04;89.46;95740.57;108759;1267;22530;-74
2023/11/13 20:26:34;;;;;;;10.00;7.00;;;;;;;5.04;89.45;95738.94;108763;1275;22803;-74
2023/11/13 20:29:08;;;;;;;12.20;7.90;;;;;;;5.04;89.53;95742.41;108762;1274;25349;-74
2023/11/13 20:31:43;;;;;;;11.00;7.10;;;;;;;5.04;89.25;95739.36;108727;1275;22529;-74
2023/11/13 20:34:15;;;;;;;12.30;8.10;;;;;;;5.02;89.34;95729.39;108754;1274;23741;-75
2023/11/13 20:36:50;;;;;;;11.60;7.80;;;;;;;5.01;89.59;95727.23;108746;1275;22586;-74
2023/11/13 20:39:27;;;;;;;8.90;6.40;;;;;;;5.03;89.64;95726.02;108760;1275;22521;-74
2023/11/13 20:42:05;;;;;;;9.20;5.90;;;;;;;5.07;89.61;95719.14;108768;1270;29477;-74
2023/11/13 20:44:39;;;;;;;9.20;6.30;;;;;;;5.08;89.69;95718.61;108771;1275;22524;-74
2023/11/13 20:47:13;;;;;;;9.40;6.10;;;;;;;5.11;89.66;95715.73;108797;1273;23267;-74
2023/11/13 20:49:45;;;;;;;8.40;5.70;;;;;;;5.14;89.60;95712.25;108734;1275;25778;-74
2023/11/13 20:52:21;;;;;;;11.50;7.10;;;;;;;5.17;89.76;95706.55;108697;1270;25085;-75
2023/11/13 20:54:54;;;;;;;9.80;6.10;;;;;;;5.19;89.69;95704.09;108763;1274;25253;-74
2023/11/13 20:57:28;;;;;;;8.80;5.70;;;;;;;5.21;89.82;95689.55;108770;1275;22528;-74